Time;durP1;ratioP1;P1;durP2;ratioP2;P2;SDS_P1;SDS_P2;PMS_P1;PMS_P2;Temp;Humidity;BMP_temperature;BMP_pressure;BME280_temperature;BME280_humidity;BME280_pressure;Samples;Min_cycle;Max_cycle;Signal;HPM_P1;HPM_P2
2022/11/29 00:00:32;;;;;;;15.68;10.85;;;6.40;99.90;;;;;;5034644;28;20202;-60
2022/11/29 00:02:59;;;;;;;15.90;11.43;;;6.40;99.90;;;;;;5034566;28;20234;-60
2022/11/29 00:05:26;;;;;;;14.07;10.98;;;6.40;99.90;;;;;;5035799;28;20202;-60
2022/11/29 00:07:53;;;;;;;14.25;11.13;;;6.50;99.90;;;;;;5034788;28;20667;-60
2022/11/29 00:10:20;;;;;;;14.07;10.60;;;6.40;99.90;;;;;;5034161;28;20198;-60
2022/11/29 00:12:46;;;;;;;16.20;12.00;;;6.50;99.90;;;;;;5034785;28;20233;-59
2022/11/29 00:15:14;;;;;;;14.77;11.40;;;6.40;99.90;;;;;;5034206;28;20577;-60
2022/11/29 00:17:41;;;;;;;20.15;11.90;;;6.40;99.90;;;;;;5033721;28;20451;-59
2022/11/29 00:20:09;;;;;;;15.38;11.13;;;6.40;99.90;;;;;;5033280;28;20198;-60
2022/11/29 00:22:36;;;;;;;14.77;11.00;;;6.40;99.90;;;;;;5033163;28;20230;-60
2022/11/29 00:25:02;;;;;;;13.75;11.70;;;6.40;99.90;;;;;;5033299;28;20198;-59
2022/11/29 00:27:29;;;;;;;14.40;9.93;;;6.40;99.90;;;;;;5037742;28;20228;-60
2022/11/29 00:29:56;;;;;;;14.63;10.77;;;6.40;99.90;;;;;;5037829;28;20203;-60
2022/11/29 00:32:24;;;;;;;14.98;12.10;;;6.40;99.90;;;;;;5037301;28;20226;-60
2022/11/29 00:34:51;;;;;;;15.65;11.18;;;6.40;99.90;;;;;;5037051;28;20226;-60
2022/11/29 00:37:18;;;;;;;15.00;10.82;;;6.40;99.90;;;;;;5036772;28;20693;-61
2022/11/29 00:39:44;;;;;;;16.08;9.98;;;6.40;99.90;;;;;;5037109;28;20213;-60
2022/11/29 00:42:11;;;;;;;14.20;11.60;;;6.40;99.90;;;;;;5036958;28;20222;-60
2022/11/29 00:44:38;;;;;;;18.77;12.10;;;6.40;99.90;;;;;;5037715;28;20236;-59
2022/11/29 00:47:04;;;;;;;17.25;12.95;;;6.40;99.90;;;;;;5037397;28;20210;-60
2022/11/29 00:49:32;;;;;;;15.45;10.57;;;6.40;99.90;;;;;;5037526;28;20214;-60
2022/11/29 00:51:59;;;;;;;14.77;10.95;;;6.40;99.90;;;;;;5037801;28;20217;-60
2022/11/29 00:54:26;;;;;;;13.27;11.05;;;6.40;99.90;;;;;;5037765;28;20222;-58
2022/11/29 00:56:53;;;;;;;15.55;10.43;;;6.40;99.90;;;;;;5037557;28;20229;-60
2022/11/29 00:59:20;;;;;;;15.90;11.70;;;6.40;99.90;;;;;;5036783;28;20206;-59
2022/11/29 01:01:47;;;;;;;15.27;10.52;;;6.40;99.90;;;;;;5036940;28;20203;-59
2022/11/29 01:04:13;;;;;;;15.98;11.60;;;6.40;99.90;;;;;;5037023;28;20206;-58
2022/11/29 01:06:41;;;;;;;15.70;10.52;;;6.40;99.90;;;;;;5038012;28;20712;-60
2022/11/29 01:09:08;;;;;;;14.80;11.80;;;6.40;99.90;;;;;;5036667;28;20205;-59
2022/11/29 01:11:35;;;;;;;16.42;12.10;;;6.40;99.90;;;;;;5036998;28;20701;-59
2022/11/29 01:14:04;;;;;;;19.70;11.80;;;6.40;99.90;;;;;;5036499;28;20229;-59
2022/11/29 01:16:31;;;;;;;15.00;10.85;;;6.40;99.90;;;;;;5037000;28;20234;-60
2022/11/29 01:18:59;;;;;;;12.63;9.95;;;6.40;99.90;;;;;;5036304;28;20233;-60
2022/11/29 01:21:26;;;;;;;15.68;12.02;;;6.40;99.90;;;;;;5036463;28;20244;-60
2022/11/29 01:23:55;;;;;;;13.07;10.32;;;6.40;99.90;;;;;;5035856;28;20238;-60
2022/11/29 01:26:24;;;;;;;17.25;11.57;;;6.40;99.90;;;;;;5036168;28;20201;-60
2022/11/29 01:28:52;;;;;;;16.23;11.15;;;6.40;99.90;;;;;;5036582;28;20210;-60
2022/11/29 01:31:21;;;;;;;12.23;9.85;;;6.40;99.90;;;;;;5036529;28;20202;-59
2022/11/29 01:33:48;;;;;;;19.45;10.57;;;6.40;99.90;;;;;;5036031;28;20226;-60
2022/11/29 01:36:15;;;;;;;13.63;10.63;;;6.30;99.90;;;;;;5035765;28;20230;-59
2022/11/29 01:38:42;;;;;;;15.88;10.80;;;6.30;99.90;;;;;;5035764;28;20199;-60
2022/11/29 01:41:14;;;;;;;15.75;10.95;;;6.30;99.90;;;;;;5036079;28;20268;-60
2022/11/29 01:44:00;;;;;;;16.27;11.35;;;6.30;99.90;;;;;;5035936;28;20246;-60
2022/11/29 01:46:28;;;;;;;14.43;11.13;;;6.20;99.90;;;;;;5035801;28;20201;-60
2022/11/29 01:49:00;;;;;;;14.50;10.43;;;6.20;99.90;;;;;;5035607;28;20213;-60
2022/11/29 01:51:28;;;;;;;13.70;10.63;;;6.20;99.90;;;;;;5035739;28;20206;-59
2022/11/29 01:53:56;;;;;;;17.33;10.43;;;6.20;99.90;;;;;;5037945;28;20226;-60
2022/11/29 01:56:25;;;;;;;14.10;9.90;;;6.20;99.90;;;;;;5038350;28;20233;-60
2022/11/29 01:58:52;;;;;;;14.30;10.40;;;6.20;99.90;;;;;;5040142;28;20206;-59
2022/11/29 02:01:18;;;;;;;13.27;9.30;;;6.10;99.90;;;;;;5037462;28;20248;-59
2022/11/29 02:03:45;;;;;;;13.02;10.60;;;6.10;99.90;;;;;;5035413;28;20674;-59
2022/11/29 02:06:12;;;;;;;13.55;11.23;;;6.10;99.90;;;;;;5034989;28;20194;-59
2022/11/29 02:08:41;;;;;;;16.80;11.75;;;6.00;99.90;;;;;;5035214;28;20253;-60
2022/11/29 02:11:44;;;;;;;12.73;10.32;;;6.00;99.90;;;;;;5035412;28;20269;-59
2022/11/29 02:14:49;;;;;;;16.73;10.93;;;6.00;99.90;;;;;;5035517;28;20194;-60
2022/11/29 02:17:24;;;;;;;16.60;11.27;;;6.00;99.90;;;;;;5035496;28;20233;-60
2022/11/29 02:20:20;;;;;;;15.63;9.85;;;5.90;99.90;;;;;;5035162;28;20186;-60
2022/11/29 02:22:56;;;;;;;14.25;10.57;;;5.90;99.90;;;;;;5034968;28;20230;-60
2022/11/29 02:25:36;;;;;;;13.63;11.13;;;5.90;99.90;;;;;;5035079;28;20214;-59
2022/11/29 02:28:44;;;;;;;17.35;11.68;;;5.90;99.90;;;;;;5035285;28;20197;-60
2022/11/29 02:31:35;;;;;;;17.75;10.60;;;5.90;99.90;;;;;;5035278;28;20320;-59
2022/11/29 02:34:39;;;;;;;15.02;10.75;;;5.90;99.90;;;;;;5034671;28;20233;-60
2022/11/29 02:37:37;;;;;;;15.75;10.68;;;5.90;99.90;;;;;;5030801;28;20206;-59
2022/11/29 02:40:22;;;;;;;11.60;10.40;;;5.90;99.90;;;;;;5035262;28;20194;-59
2022/11/29 02:43:14;;;;;;;14.00;10.65;;;5.90;99.90;;;;;;5034412;28;20710;-60
2022/11/29 02:46:06;;;;;;;15.40;11.63;;;5.90;99.90;;;;;;5034537;28;20194;-59
2022/11/29 02:48:52;;;;;;;14.48;11.38;;;5.90;99.90;;;;;;5033963;28;20183;-59
2022/11/29 02:51:25;;;;;;;16.80;11.25;;;5.90;99.90;;;;;;5034616;28;20202;-60
2022/11/29 02:53:59;;;;;;;15.15;10.55;;;5.90;99.90;;;;;;5034998;28;20229;-60
2022/11/29 02:56:34;;;;;;;14.50;10.80;;;5.90;99.90;;;;;;5035023;28;20210;-60
2022/11/29 02:59:07;;;;;;;14.82;11.10;;;5.80;99.90;;;;;;5034813;28;20205;-60
2022/11/29 03:01:41;;;;;;;13.02;10.63;;;5.90;99.90;;;;;;5034747;28;20194;-60
2022/11/29 03:04:17;;;;;;;17.38;10.70;;;5.80;99.90;;;;;;5039897;28;20226;-60
2022/11/29 03:06:52;;;;;;;14.10;10.35;;;5.80;99.90;;;;;;5034706;28;20183;-60
2022/11/29 03:09:26;;;;;;;16.10;10.00;;;5.80;99.90;;;;;;5034608;28;20557;-59
2022/11/29 03:12:02;;;;;;;16.92;10.80;;;5.80;99.90;;;;;;5034253;28;20187;-60
2022/11/29 03:14:41;;;;;;;13.13;9.57;;;5.90;99.90;;;;;;5034335;28;20559;-60
2022/11/29 03:17:22;;;;;;;15.75;12.15;;;5.90;99.90;;;;;;5034602;28;20553;-60
2022/11/29 03:20:04;;;;;;;12.75;9.60;;;5.90;99.90;;;;;;5034945;28;20197;-60
2022/11/29 03:22:43;;;;;;;15.10;11.32;;;5.90;99.90;;;;;;5034244;28;20229;-61
2022/11/29 03:25:17;;;;;;;13.32;11.00;;;5.90;99.90;;;;;;5034480;28;20186;-60
2022/11/29 03:27:52;;;;;;;12.68;10.70;;;5.90;99.90;;;;;;5033869;28;20197;-60
2022/11/29 03:30:20;;;;;;;16.80;10.80;;;5.90;99.90;;;;;;5033980;28;20190;-60
2022/11/29 03:32:56;;;;;;;15.50;11.00;;;5.90;99.90;;;;;;5033565;28;20228;-59
2022/11/29 03:35:30;;;;;;;16.38;10.95;;;5.90;99.90;;;;;;5033992;28;20553;-60
2022/11/29 03:38:07;;;;;;;18.42;11.00;;;5.90;99.90;;;;;;5033866;28;20187;-60
2022/11/29 03:40:43;;;;;;;15.57;10.63;;;5.90;99.90;;;;;;5033763;28;20188;-60
2022/11/29 03:43:16;;;;;;;13.75;10.40;;;5.90;99.90;;;;;;5033531;28;20598;-59
2022/11/29 03:45:47;;;;;;;14.15;10.68;;;5.90;99.90;;;;;;5033989;28;20190;-59
2022/11/29 03:48:18;;;;;;;15.18;10.50;;;5.90;99.90;;;;;;5033697;28;20561;-60
2022/11/29 03:50:51;;;;;;;14.48;11.73;;;5.90;99.90;;;;;;5033782;28;20190;-60
2022/11/29 03:53:26;;;;;;;12.50;11.05;;;6.00;99.90;;;;;;5033908;28;20222;-60
2022/11/29 03:55:54;;;;;;;14.63;9.93;;;6.00;99.90;;;;;;5033426;28;20673;-59
2022/11/29 03:58:43;;;;;;;14.20;10.20;;;6.00;99.90;;;;;;5033428;28;20646;-60
2022/11/29 04:01:47;;;;;;;14.80;10.23;;;6.00;99.90;;;;;;5033419;28;20650;-60
2022/11/29 04:04:36;;;;;;;13.75;10.20;;;6.00;99.90;;;;;;5021969;28;20233;-60
2022/11/29 04:11:20;;;;;;;14.00;11.05;;;6.00;99.90;;;;;;5090718;28;20603;-60
2022/11/29 04:14:18;;;;;;;16.77;11.75;;;5.90;99.90;;;;;;5090724;28;20220;-60
2022/11/29 04:17:04;;;;;;;16.67;11.43;;;6.00;99.90;;;;;;5092011;28;20200;-59
2022/11/29 04:19:52;;;;;;;12.68;10.27;;;5.90;99.90;;;;;;5092660;28;20195;-58
2022/11/29 04:22:51;;;;;;;17.52;11.65;;;6.00;99.90;;;;;;5093674;28;20220;-60
2022/11/29 04:26:03;;;;;;;16.17;10.40;;;6.00;99.90;;;;;;5092827;28;20649;-60
2022/11/29 04:29:14;;;;;;;15.82;11.48;;;5.90;99.90;;;;;;5087574;28;20196;-60
2022/11/29 04:32:01;;;;;;;12.88;10.52;;;5.90;99.90;;;;;;5062421;28;20201;-60
2022/11/29 04:34:52;;;;;;;15.32;11.27;;;5.90;99.90;;;;;;5096747;28;20194;-59
2022/11/29 04:37:38;;;;;;;13.27;10.05;;;5.90;99.90;;;;;;5099584;28;20192;-59
2022/11/29 04:40:22;;;;;;;19.30;12.15;;;5.90;99.90;;;;;;5097110;28;20192;-59
2022/11/29 04:43:14;;;;;;;21.02;11.88;;;5.80;99.90;;;;;;5105574;28;20232;-59
2022/11/29 04:46:10;;;;;;;16.77;11.20;;;5.80;99.90;;;;;;5097203;28;20268;-60
2022/11/29 04:48:52;;;;;;;15.38;11.43;;;5.70;99.90;;;;;;5093518;28;20184;-59
2022/11/29 04:51:31;;;;;;;21.73;12.10;;;5.70;99.90;;;;;;5093808;28;20185;-59
2022/11/29 04:54:07;;;;;;;15.70;11.90;;;5.70;99.90;;;;;;5092567;28;20224;-59
2022/11/29 04:56:41;;;;;;;20.65;12.07;;;5.70;99.90;;;;;;5091157;28;20188;-59
2022/11/29 04:59:15;;;;;;;16.15;12.23;;;5.70;99.90;;;;;;5090925;28;20212;-59
2022/11/29 05:01:54;;;;;;;23.35;12.10;;;5.60;99.90;;;;;;5089966;28;20188;-60
2022/11/29 05:04:25;;;;;;;16.67;11.45;;;5.60;99.90;;;;;;5083959;28;20196;-58
2022/11/29 05:07:02;;;;;;;13.80;11.43;;;5.60;99.90;;;;;;5080433;28;20196;-59
2022/11/29 05:09:42;;;;;;;14.65;10.82;;;5.60;99.90;;;;;;5089373;28;20691;-59
2022/11/29 05:12:18;;;;;;;14.82;10.32;;;5.60;99.90;;;;;;5069087;28;20229;-60
2022/11/29 05:14:58;;;;;;;14.85;11.05;;;5.70;99.90;;;;;;5068985;28;20197;-60
2022/11/29 05:17:32;;;;;;;15.15;11.00;;;5.70;99.90;;;;;;5073589;28;20196;-59
2022/11/29 05:20:10;;;;;;;17.08;12.63;;;5.70;99.90;;;;;;5073478;28;20189;-58
2022/11/29 05:22:52;;;;;;;13.40;10.48;;;5.70;99.90;;;;;;5065449;28;20222;-60
2022/11/29 05:25:35;;;;;;;17.45;12.32;;;5.70;99.90;;;;;;5063206;28;20193;-60
2022/11/29 05:28:09;;;;;;;14.32;11.75;;;5.60;99.90;;;;;;5071951;28;20204;-60
2022/11/29 05:31:02;;;;;;;17.80;12.18;;;5.60;99.90;;;;;;5076957;28;20213;-59
2022/11/29 05:33:47;;;;;;;21.30;13.02;;;5.70;99.90;;;;;;5052693;28;20229;-59
2022/11/29 05:36:24;;;;;;;17.73;12.57;;;5.70;99.90;;;;;;5061089;28;20577;-60
2022/11/29 05:39:12;;;;;;;15.45;10.90;;;5.70;99.90;;;;;;5059792;28;20665;-60
2022/11/29 05:41:52;;;;;;;15.43;10.57;;;5.70;99.90;;;;;;5058947;28;20205;-60
2022/11/29 05:44:26;;;;;;;12.68;10.52;;;5.70;99.90;;;;;;5059840;28;20193;-58
2022/11/29 05:46:57;;;;;;;18.65;12.05;;;5.70;99.90;;;;;;5067620;28;20201;-59
2022/11/29 05:49:33;;;;;;;16.33;11.70;;;5.80;99.90;;;;;;5065431;28;20213;-58
2022/11/29 05:52:18;;;;;;;18.08;11.65;;;5.80;99.90;;;;;;5063818;28;20201;-59
2022/11/29 05:54:51;;;;;;;17.38;11.23;;;5.80;99.90;;;;;;5062595;28;20193;-60
2022/11/29 05:57:26;;;;;;;15.45;11.55;;;5.80;99.90;;;;;;5063680;28;20205;-60
2022/11/29 05:59:55;;;;;;;18.20;11.43;;;5.80;99.90;;;;;;5064160;28;20186;-60
2022/11/29 06:02:37;;;;;;;16.60;12.02;;;5.80;99.90;;;;;;5063181;28;20222;-60
2022/11/29 06:05:12;;;;;;;15.38;11.90;;;5.70;99.90;;;;;;5058624;28;20209;-60
2022/11/29 06:07:47;;;;;;;14.98;11.18;;;5.80;99.90;;;;;;5059332;28;20185;-60
2022/11/29 06:10:17;;;;;;;15.75;11.57;;;5.80;99.90;;;;;;5061466;28;20231;-59
2022/11/29 06:12:53;;;;;;;19.80;11.70;;;5.80;99.90;;;;;;5060799;28;20214;-60
2022/11/29 06:16:01;;;;;;;17.13;11.60;;;5.80;99.90;;;;;;5060791;28;20209;-60
2022/11/29 06:18:49;;;;;;;16.63;13.07;;;5.80;99.90;;;;;;5068299;28;20208;-59
2022/11/29 06:21:26;;;;;;;19.27;11.95;;;5.80;99.90;;;;;;5076782;28;20189;-60
2022/11/29 06:24:16;;;;;;;15.60;11.50;;;5.80;99.90;;;;;;5084100;28;20246;-60
2022/11/29 06:27:03;;;;;;;20.88;11.85;;;5.90;99.90;;;;;;5085046;28;20189;-59
2022/11/29 06:29:37;;;;;;;18.67;11.75;;;5.90;99.90;;;;;;5078635;28;20295;-60
2022/11/29 06:32:17;;;;;;;15.10;12.25;;;5.90;99.90;;;;;;5061800;28;20201;-59
2022/11/29 06:34:53;;;;;;;18.52;11.30;;;5.90;99.90;;;;;;5070660;28;20194;-58
2022/11/29 06:37:25;;;;;;;14.52;11.05;;;5.90;99.90;;;;;;5069127;28;20232;-57
2022/11/29 06:39:53;;;;;;;17.00;11.10;;;5.90;99.90;;;;;;5074001;28;20189;-58
2022/11/29 06:42:20;;;;;;;14.13;11.05;;;5.90;99.90;;;;;;5075628;28;20221;-60
2022/11/29 06:44:47;;;;;;;19.13;12.60;;;5.90;99.90;;;;;;5070164;28;20201;-59
2022/11/29 06:47:21;;;;;;;16.88;11.15;;;5.90;99.90;;;;;;5076704;28;20223;-59
2022/11/29 06:49:54;;;;;;;18.77;12.60;;;5.90;99.90;;;;;;5057604;28;20209;-58
2022/11/29 06:52:30;;;;;;;14.52;11.20;;;5.90;99.90;;;;;;5055535;28;20571;-59
2022/11/29 06:55:10;;;;;;;17.98;10.90;;;6.00;99.90;;;;;;5055229;28;20221;-60
2022/11/29 06:57:50;;;;;;;17.20;10.88;;;5.90;99.90;;;;;;5055142;28;20281;-62
2022/11/29 07:00:21;;;;;;;16.25;12.10;;;6.00;99.90;;;;;;5063802;28;20194;-60
2022/11/29 07:03:15;;;;;;;19.10;12.63;;;6.00;99.90;;;;;;5055462;28;20237;-60
2022/11/29 07:05:45;;;;;;;16.30;12.20;;;6.00;99.90;;;;;;5054937;28;20243;-60
2022/11/29 07:08:15;;;;;;;16.88;11.15;;;6.00;99.90;;;;;;5054679;28;20204;-60
2022/11/29 07:10:43;;;;;;;20.30;11.93;;;6.00;99.90;;;;;;5054420;28;20221;-59
2022/11/29 07:13:12;;;;;;;17.02;13.07;;;6.00;99.90;;;;;;5054517;28;20229;-59
2022/11/29 07:15:41;;;;;;;14.98;11.57;;;6.00;99.90;;;;;;5054725;28;20198;-60
2022/11/29 07:18:17;;;;;;;16.73;12.25;;;6.00;99.90;;;;;;5055560;28;20213;-58
2022/11/29 07:20:56;;;;;;;13.20;10.95;;;6.00;99.90;;;;;;5056896;28;20191;-60
2022/11/29 07:23:34;;;;;;;15.27;12.30;;;6.10;99.90;;;;;;5056485;28;20224;-58
2022/11/29 07:26:15;;;;;;;18.02;12.73;;;6.10;99.90;;;;;;5056083;28;20185;-60
2022/11/29 07:28:51;;;;;;;16.73;11.20;;;6.10;99.90;;;;;;5059355;28;20556;-60
2022/11/29 07:31:25;;;;;;;20.02;12.10;;;6.10;99.90;;;;;;5056566;28;20206;-60
2022/11/29 07:33:58;;;;;;;18.73;11.88;;;6.10;99.90;;;;;;5056897;28;20228;-59
2022/11/29 07:36:37;;;;;;;18.13;12.35;;;6.10;99.90;;;;;;5057406;28;20269;-61
2022/11/29 07:39:25;;;;;;;17.30;11.60;;;6.20;99.90;;;;;;5059207;28;20186;-59
2022/11/29 07:42:00;;;;;;;16.50;11.82;;;6.20;99.90;;;;;;5059960;28;20209;-59
2022/11/29 07:44:35;;;;;;;19.30;12.02;;;6.20;99.90;;;;;;5058266;28;20201;-59
2022/11/29 07:47:02;;;;;;;15.40;12.57;;;6.20;99.90;;;;;;5055593;28;20189;-60
2022/11/29 07:49:29;;;;;;;17.42;12.38;;;6.20;99.90;;;;;;5055222;28;20232;-60
2022/11/29 07:51:57;;;;;;;15.73;11.57;;;6.20;99.90;;;;;;5055299;28;20205;-60
2022/11/29 07:54:24;;;;;;;18.02;12.15;;;6.20;99.90;;;;;;5055774;28;20201;-58
2022/11/29 07:56:51;;;;;;;18.88;12.57;;;6.20;99.90;;;;;;5054850;28;20658;-59
2022/11/29 07:59:17;;;;;;;17.00;12.55;;;6.20;99.90;;;;;;5053987;28;20206;-59
2022/11/29 08:01:44;;;;;;;18.58;12.00;;;6.20;99.90;;;;;;5054189;28;20205;-59
2022/11/29 08:04:11;;;;;;;15.77;11.80;;;6.20;99.90;;;;;;5055205;28;20205;-60
2022/11/29 08:06:38;;;;;;;18.85;13.20;;;6.10;99.90;;;;;;5054487;28;20666;-60
2022/11/29 08:09:06;;;;;;;19.48;13.15;;;6.20;99.90;;;;;;5054575;28;20649;-59
2022/11/29 08:11:33;;;;;;;18.05;12.27;;;6.20;99.90;;;;;;5055100;28;20279;-60
2022/11/29 08:14:01;;;;;;;19.45;13.07;;;6.20;99.90;;;;;;5053379;28;20228;-59
2022/11/29 08:16:28;;;;;;;19.30;14.13;;;6.20;99.90;;;;;;5053241;28;20214;-60
2022/11/29 08:18:55;;;;;;;23.02;13.30;;;6.20;99.90;;;;;;5054160;28;20212;-60
2022/11/29 08:21:22;;;;;;;18.80;13.38;;;6.20;99.90;;;;;;5052943;28;20194;-60
2022/11/29 08:23:50;;;;;;;18.20;13.18;;;6.20;99.90;;;;;;5053202;28;20229;-60
2022/11/29 08:26:20;;;;;;;20.42;12.57;;;6.20;99.90;;;;;;5053628;28;20228;-60
2022/11/29 08:28:51;;;;;;;19.80;13.55;;;6.20;99.90;;;;;;5053016;28;20205;-59
2022/11/29 08:31:19;;;;;;;19.48;13.68;;;6.20;99.90;;;;;;5053556;28;20267;-60
2022/11/29 08:33:45;;;;;;;17.58;12.65;;;6.10;99.90;;;;;;5054078;28;20221;-58
2022/11/29 08:36:14;;;;;;;20.40;13.07;;;6.10;99.90;;;;;;5054686;28;20197;-59
2022/11/29 08:38:41;;;;;;;19.77;13.90;;;6.10;99.90;;;;;;5053214;28;20216;-59
2022/11/29 08:41:10;;;;;;;19.02;13.65;;;6.20;99.90;;;;;;5054824;28;20209;-59
2022/11/29 08:43:38;;;;;;;23.83;14.68;;;6.20;99.90;;;;;;5054920;28;20226;-60
2022/11/29 08:46:05;;;;;;;18.10;13.40;;;6.20;99.90;;;;;;5054707;28;20221;-61
2022/11/29 08:48:32;;;;;;;20.25;14.02;;;6.30;99.90;;;;;;5052797;28;20202;-60
2022/11/29 08:50:58;;;;;;;22.77;13.60;;;6.30;99.90;;;;;;5053118;28;20596;-60
2022/11/29 08:53:50;;;;;;;25.00;14.60;;;6.40;99.90;;;;;;5052690;28;20229;-61
2022/11/29 08:56:19;;;;;;;18.65;14.35;;;6.40;99.90;;;;;;5055165;28;20188;-60
2022/11/29 08:58:47;;;;;;;20.52;13.60;;;6.50;99.90;;;;;;5056884;28;20204;-60
2022/11/29 09:01:16;;;;;;;15.02;12.13;;;6.60;99.90;;;;;;5057031;28;20205;-59
2022/11/29 09:04:02;;;;;;;23.50;14.75;;;6.70;99.90;;;;;;5056726;28;20236;-59
2022/11/29 09:06:31;;;;;;;20.17;13.95;;;6.80;99.90;;;;;;5057072;28;20594;-60
2022/11/29 09:08:59;;;;;;;18.30;13.85;;;6.90;99.90;;;;;;5056632;28;20263;-57
2022/11/29 09:11:27;;;;;;;22.42;13.63;;;6.90;99.90;;;;;;5056427;28;20579;-59
2022/11/29 09:13:58;;;;;;;20.65;13.93;;;7.00;99.90;;;;;;5056560;28;20217;-59
2022/11/29 09:16:27;;;;;;;20.98;15.10;;;7.00;99.90;;;;;;5056208;28;20672;-58
2022/11/29 09:18:55;;;;;;;22.30;14.80;;;7.10;99.90;;;;;;5056086;28;20553;-60
2022/11/29 09:21:23;;;;;;;21.60;12.35;;;7.10;99.90;;;;;;5056307;28;20201;-59
2022/11/29 09:23:56;;;;;;;22.90;14.05;;;7.20;99.90;;;;;;5056084;28;20218;-60
2022/11/29 09:26:23;;;;;;;28.77;13.68;;;7.20;99.90;;;;;;5057189;28;20634;-59
2022/11/29 09:28:50;;;;;;;20.67;13.95;;;7.20;99.90;;;;;;5057035;28;20205;-59
2022/11/29 09:31:18;;;;;;;19.98;13.68;;;7.20;99.90;;;;;;5056182;28;20228;-59
2022/11/29 09:33:45;;;;;;;21.75;13.57;;;7.20;99.90;;;;;;5056528;28;20233;-60
2022/11/29 09:36:13;;;;;;;26.20;13.02;;;7.20;99.90;;;;;;5057048;28;20592;-60
2022/11/29 09:38:39;;;;;;;18.33;14.07;;;7.20;99.90;;;;;;5056088;28;20206;-60
2022/11/29 09:41:18;;;;;;;18.63;13.85;;;7.20;99.90;;;;;;5055782;28;20670;-58
2022/11/29 09:43:54;;;;;;;23.80;15.68;;;7.10;99.90;;;;;;5055904;28;20233;-60
2022/11/29 09:46:34;;;;;;;20.52;14.23;;;7.10;99.90;;;;;;5056206;28;20559;-60
2022/11/29 09:49:26;;;;;;;20.75;14.48;;;7.00;99.90;;;;;;5056112;28;20189;-58
2022/11/29 09:52:01;;;;;;;19.80;13.07;;;7.00;99.90;;;;;;5055559;28;20213;-60
2022/11/29 09:54:38;;;;;;;23.13;16.02;;;7.10;99.90;;;;;;5055886;28;20193;-58
2022/11/29 09:57:08;;;;;;;26.38;16.27;;;7.20;99.90;;;;;;5055861;28;20186;-60
2022/11/29 09:59:39;;;;;;;27.45;15.95;;;7.20;99.90;;;;;;5055322;28;20670;-59
2022/11/29 10:02:17;;;;;;;26.52;15.75;;;7.30;99.90;;;;;;5055557;28;20217;-59
2022/11/29 10:04:48;;;;;;;25.00;15.40;;;7.20;99.90;;;;;;5055542;28;20186;-60
2022/11/29 10:07:20;;;;;;;26.45;16.42;;;7.20;99.90;;;;;;5055786;28;20209;-59
2022/11/29 10:09:52;;;;;;;23.65;15.43;;;7.30;99.90;;;;;;5055229;28;20217;-60
2022/11/29 10:12:23;;;;;;;22.58;14.18;;;7.30;99.90;;;;;;5055802;28;20596;-60
2022/11/29 10:14:54;;;;;;;20.98;15.52;;;7.30;99.90;;;;;;5055590;28;20194;-60
2022/11/29 10:17:32;;;;;;;23.92;15.82;;;7.30;99.90;;;;;;5055093;28;20190;-59
2022/11/29 10:20:04;;;;;;;26.38;14.77;;;7.30;99.90;;;;;;5055125;28;20193;-60
2022/11/29 10:22:39;;;;;;;24.63;15.20;;;7.40;99.90;;;;;;5056483;28;20287;-60
2022/11/29 10:25:09;;;;;;;24.13;17.33;;;7.40;99.90;;;;;;5054855;28;20232;-59
2022/11/29 10:27:39;;;;;;;23.20;16.30;;;7.50;99.90;;;;;;5054573;28;20321;-58
2022/11/29 10:30:12;;;;;;;21.00;15.73;;;7.50;99.90;;;;;;5055089;28;20194;-59
2022/11/29 10:32:41;;;;;;;22.55;15.75;;;7.50;99.90;;;;;;5055064;28;20218;-59
2022/11/29 10:35:13;;;;;;;27.20;16.98;;;7.60;99.90;;;;;;5055328;28;20209;-59
2022/11/29 10:37:40;;;;;;;21.92;16.55;;;7.60;99.90;;;;;;5055028;28;20604;-58
2022/11/29 10:40:14;;;;;;;23.67;16.05;;;7.70;99.90;;;;;;5054824;28;20202;-59
2022/11/29 10:42:52;;;;;;;27.38;16.88;;;7.80;99.90;;;;;;5055807;28;20274;-60
2022/11/29 10:45:28;;;;;;;24.67;15.43;;;7.90;99.90;;;;;;5057956;28;20229;-59
2022/11/29 10:48:02;;;;;;;21.88;16.20;;;8.00;99.90;;;;;;5061794;28;20197;-59
2022/11/29 10:50:31;;;;;;;24.20;17.15;;;8.10;99.90;;;;;;5074147;28;20209;-58
2022/11/29 10:53:04;;;;;;;21.55;16.60;;;8.20;99.90;;;;;;5063829;28;20696;-60
2022/11/29 10:55:37;;;;;;;26.77;17.33;;;8.30;99.90;;;;;;5069594;28;20232;-60
2022/11/29 10:58:13;;;;;;;28.70;18.35;;;8.40;99.90;;;;;;5074333;28;20188;-59
2022/11/29 11:00:51;;;;;;;23.75;15.05;;;8.40;99.90;;;;;;5066155;28;20566;-59
2022/11/29 11:03:33;;;;;;;21.48;15.50;;;8.40;99.90;;;;;;5065772;28;20696;-60
2022/11/29 11:06:05;;;;;;;25.13;17.05;;;8.50;99.90;;;;;;5074235;28;20755;-60
2022/11/29 11:08:33;;;;;;;22.25;15.95;;;8.60;99.90;;;;;;5055152;28;20224;-59
2022/11/29 11:11:03;;;;;;;19.75;14.80;;;8.60;99.90;;;;;;5073936;28;20216;-60
2022/11/29 11:13:32;;;;;;;19.30;15.35;;;8.60;99.90;;;;;;5074321;28;20705;-60
2022/11/29 11:16:09;;;;;;;29.02;16.05;;;8.70;99.90;;;;;;5069089;28;20209;-61
2022/11/29 11:18:37;;;;;;;24.20;15.45;;;8.70;99.90;;;;;;5062181;28;20231;-58
2022/11/29 11:21:09;;;;;;;23.40;16.73;;;8.70;99.90;;;;;;5075195;28;20208;-59
2022/11/29 11:23:40;;;;;;;22.98;16.38;;;8.80;99.90;;;;;;5076665;28;20224;-60
2022/11/29 11:26:10;;;;;;;22.60;15.70;;;8.80;99.90;;;;;;5078217;28;20247;-59
2022/11/29 11:28:42;;;;;;;24.10;16.80;;;8.70;99.90;;;;;;5074949;28;20241;-60
2022/11/29 11:31:10;;;;;;;27.42;17.65;;;8.60;99.90;;;;;;5073940;28;20216;-60
2022/11/29 11:33:40;;;;;;;23.88;17.95;;;8.60;99.90;;;;;;5074510;28;20594;-60
2022/11/29 11:36:11;;;;;;;23.38;18.00;;;8.50;99.90;;;;;;5072187;28;20556;-61
2022/11/29 11:38:40;;;;;;;22.50;16.60;;;8.50;99.90;;;;;;5053680;28;20189;-61
2022/11/29 11:41:18;;;;;;;23.88;16.63;;;8.50;99.90;;;;;;5053937;28;20198;-60
2022/11/29 11:43:51;;;;;;;22.58;17.95;;;8.40;99.90;;;;;;5054582;28;20229;-60
2022/11/29 11:46:18;;;;;;;25.33;17.63;;;8.40;99.90;;;;;;5054989;28;20186;-61
2022/11/29 11:48:47;;;;;;;24.95;17.98;;;8.40;99.90;;;;;;5057733;28;20208;-59
2022/11/29 11:51:22;;;;;;;27.70;17.63;;;8.30;99.90;;;;;;5061163;28;20247;-59
2022/11/29 11:53:52;;;;;;;30.27;18.88;;;8.30;99.90;;;;;;5057928;28;20221;-59
2022/11/29 11:56:20;;;;;;;34.63;20.73;;;8.20;99.90;;;;;;5059430;28;20273;-61
2022/11/29 11:58:49;;;;;;;32.97;20.83;;;8.30;99.90;;;;;;5060046;28;20251;-61
2022/11/29 12:01:25;;;;;;;31.85;21.45;;;8.20;99.90;;;;;;5061561;28;20205;-60
2022/11/29 12:04:00;;;;;;;36.92;22.15;;;8.20;99.90;;;;;;5060038;28;20232;-59
2022/11/29 12:06:45;;;;;;;34.13;19.83;;;8.10;99.90;;;;;;5059832;28;20204;-60
2022/11/29 12:09:18;;;;;;;40.78;21.35;;;8.10;99.90;;;;;;5057380;28;20677;-60
2022/11/29 12:11:50;;;;;;;38.95;23.10;;;8.00;99.90;;;;;;5056925;28;20202;-59
2022/11/29 12:14:26;;;;;;;32.65;21.50;;;8.00;99.90;;;;;;5055007;28;20190;-60
2022/11/29 12:17:02;;;;;;;38.40;23.38;;;7.90;99.90;;;;;;5055132;28;20185;-60
2022/11/29 12:19:38;;;;;;;40.67;23.05;;;7.90;99.90;;;;;;5053329;28;20291;-61
2022/11/29 12:22:12;;;;;;;40.83;25.58;;;7.90;99.90;;;;;;5054015;28;20188;-61
2022/11/29 12:24:47;;;;;;;32.97;22.13;;;7.90;99.90;;;;;;5054781;28;20189;-60
2022/11/29 12:27:14;;;;;;;37.53;20.10;;;7.80;99.90;;;;;;5055380;28;20189;-61
2022/11/29 12:29:41;;;;;;;37.08;20.30;;;7.80;99.90;;;;;;5054985;28;20569;-59
2022/11/29 12:32:27;;;;;;;34.55;20.17;;;7.80;99.90;;;;;;5057295;28;20724;-61
2022/11/29 12:35:14;;;;;;;37.13;20.77;;;7.80;99.90;;;;;;5057540;28;20186;-61
2022/11/29 12:37:46;;;;;;;35.10;20.13;;;7.70;99.90;;;;;;5057359;28;20673;-61
2022/11/29 12:40:19;;;;;;;30.98;20.17;;;7.70;99.90;;;;;;5056830;28;20653;-60
2022/11/29 12:42:55;;;;;;;30.08;21.63;;;7.70;99.90;;;;;;5057283;28;20217;-60
2022/11/29 12:45:39;;;;;;;37.67;21.02;;;7.70;99.90;;;;;;5056688;28;20186;-60
2022/11/29 12:48:16;;;;;;;29.10;20.75;;;7.70;99.90;;;;;;5057924;28;20194;-61
2022/11/29 12:50:54;;;;;;;31.55;21.38;;;7.70;99.90;;;;;;5058032;28;20185;-61
2022/11/29 12:53:36;;;;;;;30.58;20.17;;;7.60;99.90;;;;;;5057836;28;20221;-60
2022/11/29 12:56:12;;;;;;;31.90;20.88;;;7.60;99.90;;;;;;5058810;28;20185;-60
2022/11/29 12:58:50;;;;;;;36.22;22.00;;;7.70;99.90;;;;;;5058472;28;20558;-59
2022/11/29 13:01:24;;;;;;;32.83;21.88;;;7.70;99.90;;;;;;5057046;28;20177;-60
2022/11/29 13:03:58;;;;;;;29.88;19.60;;;7.80;99.90;;;;;;5056273;28;20224;-61
2022/11/29 13:06:34;;;;;;;28.80;20.60;;;7.80;99.90;;;;;;5056457;28;20189;-60
2022/11/29 13:09:27;;;;;;;30.50;19.00;;;7.80;99.90;;;;;;5055997;28;20209;-60
2022/11/29 13:11:58;;;;;;;26.27;18.70;;;7.70;99.90;;;;;;5056658;28;20758;-60
2022/11/29 13:14:31;;;;;;;30.40;19.98;;;7.70;99.90;;;;;;5056067;28;20186;-60
2022/11/29 13:17:00;;;;;;;29.50;19.35;;;7.70;99.90;;;;;;5055880;28;20660;-60
2022/11/29 13:19:36;;;;;;;29.80;21.30;;;7.70;99.90;;;;;;5055785;28;20216;-60